Philipsburg, MT (59858)

3:38 PM MST on January 17, 2018 (GMT -0700)
| | Change Station
Active Advisory: Winter Weather Advisory

Elev -9999 ft 0.00 °N, 0.00 °E | Updated

Clear
Clear
°F
Feels Like °F
N
Wind Variable Wind from North
Gusts mph

Today
High -- | Low -- °F
--% Chance of Precip.
Yesterday
High -- | Low -- °F
Precip. -- in
Pressure 30.37 in
Visibility 10.0 miles
Clouds Clear
Dew Point Not available.
Humidity Not available.
Rainfall --
Snow Depth Not available.
8:10 AM 5:16 PM
New Moon, 1% visible
METAR KBTM 172153Z AUTO 22003KT 10SM CLR M02/M07 A3019 RMK AO2 SLP283 T10221072
Pressure 30.37 in
Visibility 10.0 miles
Clouds Clear
Dew Point Not available.
Humidity Not available.
Rainfall --
Snow Depth Not available.
8:10 AM 5:16 PM
New Moon, 1% visible
METAR KBTM 172153Z AUTO 22003KT 10SM CLR M02/M07 A3019 RMK AO2 SLP283 T10221072

Get Your Daily Forecast Email!

Thanks for signing up!

Be on the lookout for a verification email in your inbox.

You'll start receiving severe weather alerts in your inbox..

×

10-Day Weather Forecast

Almanac

Astronomy

Jan. 17, 2018 Rise Set
Actual Time
Civil Twilight
Nautical Twilight
Astronomical Twilight
Moon
Length of Visible Light
Length of Day
Tomorrow will be .
, % of the Moon is Illuminated

Today's Extremes

State Highs State Lows

Community

WunderPhotos

Category 6

Welcome to Category 6. This is the collective home for Weather Underground's featured writeups by Dr. Jeff Masters (right), Bob Henson (left), Chris Burt, and other regular contributors.

Nearby

Air Quality

  Air Quality AQ Index Pollutant
Not available.

Snow Depth

Station Depth Elevation

Earthquake Activity

City Distance Mag. Time & Date
Minimum magnitude displayed is 2.5.

Coastal Water Temperatures

Place Temperature

Stations

Nearby Weather Stations

Station Location Temp. Windchill Dew Point Humidity Wind Precip. Elev Updated Type
                   

Watches & Warnings

Winter Weather Advisory
Issued: 1:59 PM MST Jan. 17, 2018 – National Weather Service

... Winter Weather Advisory in effect from 5 PM Thursday to 11 am
MST Friday...

* what... snow expected. Plan on slippery Road conditions. Total
snow accumulations of 1 to 3 inches, with up to 6 inches at
Georgetown Lake are expected.

* Where... Georgetown Lake, Highway 12 Garrison to Elliston and
MacDonald Pass, Interstate 90 between Drummond, Butte and
Homestake pass.

* When... cold front will bring an intense period of snow, low
visibility and gusty winds to 25 mph at Georgetown Lake by 7 PM,
MacDonald Pass by 9 PM, Butte by 11 PM Thursday.

Precautionary/preparedness actions...

The latest Road conditions for the state you are calling from can
be obtained by calling 5 1 1.